createdAt,value
2023-04-15T00:01:19.103Z,10.55
2023-04-15T00:03:47.531Z,10.38
2023-04-15T00:06:14.994Z,10.58
2023-04-15T00:08:42.433Z,10.39
2023-04-15T00:11:10.065Z,10.50
2023-04-15T00:13:37.774Z,10.38
2023-04-15T00:16:07.434Z,10.50
2023-04-15T00:18:35.695Z,10.60
2023-04-15T00:21:03.406Z,10.58
2023-04-15T00:23:31.424Z,10.55
2023-04-15T00:25:58.669Z,10.78
2023-04-15T00:28:26.258Z,10.72
2023-04-15T00:30:53.565Z,10.58
2023-04-15T00:33:20.820Z,10.58
2023-04-15T00:35:48.065Z,10.55
2023-04-15T00:38:15.373Z,10.54
2023-04-15T00:40:43.600Z,10.45
2023-04-15T00:43:10.932Z,10.48
2023-04-15T00:45:38.600Z,10.58
2023-04-15T00:48:06.135Z,10.35
2023-04-15T00:50:33.569Z,10.31
2023-04-15T00:53:01.134Z,10.23
2023-04-15T00:55:28.533Z,10.16
2023-04-15T00:57:57.398Z,10.47
2023-04-15T01:00:24.866Z,10.47
2023-04-15T01:02:52.400Z,10.59
2023-04-15T01:05:20.021Z,10.50
2023-04-15T01:07:48.377Z,10.35
2023-04-15T01:10:15.746Z,10.30
2023-04-15T01:12:43.526Z,10.49
2023-04-15T01:15:11.197Z,10.47
2023-04-15T01:17:39.327Z,10.46
2023-04-15T01:20:10.688Z,10.61
2023-04-15T01:22:38.564Z,10.43
2023-04-15T01:25:18.749Z,10.23
2023-04-15T01:27:46.491Z,9.98
2023-04-15T01:30:13.789Z,10.10
2023-04-15T01:32:41.765Z,10.17
2023-04-15T01:35:09.919Z,10.35
2023-04-15T01:37:37.927Z,10.38
2023-04-15T01:40:05.889Z,10.16
2023-04-15T01:42:33.756Z,10.23
2023-04-15T01:45:01.178Z,10.20
2023-04-15T01:47:28.583Z,10.27
2023-04-15T01:49:56.192Z,10.38
2023-04-15T01:52:23.507Z,10.35
2023-04-15T01:54:50.910Z,10.33
2023-04-15T01:57:19.286Z,10.20
2023-04-15T01:59:46.948Z,10.33
2023-04-15T02:02:15.593Z,10.37
2023-04-15T02:04:43.113Z,10.10
2023-04-15T02:07:10.395Z,10.29
2023-04-15T02:09:38.716Z,10.34
2023-04-15T02:12:08.284Z,10.30
2023-04-15T02:14:35.678Z,9.84
2023-04-15T02:17:07.372Z,9.89
2023-04-15T02:19:35.663Z,9.81
2023-04-15T02:22:03.964Z,9.96
2023-04-15T02:24:31.283Z,9.78
2023-04-15T02:26:58.564Z,9.62
2023-04-15T02:29:26.216Z,9.35
2023-04-15T02:31:53.416Z,9.18
2023-04-15T02:34:21.296Z,9.18
2023-04-15T02:36:49.760Z,9.26
2023-04-15T02:39:18.599Z,9.22
2023-04-15T02:41:51.765Z,9.21
2023-04-15T02:44:20.548Z,9.13
2023-04-15T02:46:52.480Z,9.17
2023-04-15T02:49:19.679Z,9.07
2023-04-15T02:51:49.956Z,9.17
2023-04-15T02:54:20.790Z,9.29
2023-04-15T02:56:48.164Z,9.16
2023-04-15T02:59:15.539Z,9.21
2023-04-15T03:01:43.153Z,9.25
2023-04-15T03:04:10.646Z,9.10
2023-04-15T03:06:37.973Z,9.33
2023-04-15T03:09:05.595Z,9.25
2023-04-15T03:11:37.070Z,9.13
2023-04-15T03:14:04.886Z,9.49
2023-04-15T03:16:36.048Z,9.34
2023-04-15T03:19:03.527Z,9.37
2023-04-15T03:21:34.039Z,9.32
2023-04-15T03:24:01.630Z,9.10
2023-04-15T03:26:31.030Z,9.17
2023-04-15T03:29:02.168Z,9.26
2023-04-15T03:31:30.150Z,9.12
2023-04-15T03:33:57.398Z,9.10
2023-04-15T03:36:24.646Z,9.15
2023-04-15T03:38:51.829Z,8.99
2023-04-15T03:41:19.129Z,9.04
2023-04-15T03:43:46.418Z,9.10
2023-04-15T03:46:13.698Z,9.09
2023-04-15T03:48:41.505Z,9.05
2023-04-15T03:51:08.824Z,8.80
2023-04-15T03:53:36.381Z,8.71
2023-04-15T03:56:03.668Z,8.56
2023-04-15T03:58:30.893Z,8.66
2023-04-15T04:00:58.154Z,8.62
2023-04-15T04:03:25.731Z,8.59
2023-04-15T04:05:53.626Z,8.68
2023-04-15T04:08:21.749Z,8.57
2023-04-15T04:10:48.981Z,8.47
2023-04-15T04:13:16.392Z,8.68
2023-04-15T04:15:43.870Z,8.73
2023-04-15T04:18:11.352Z,8.76
2023-04-15T04:20:38.871Z,9.08
2023-04-15T04:23:06.595Z,9.05
2023-04-15T04:25:34.417Z,9.02
2023-04-15T04:28:01.757Z,8.95
2023-04-15T04:30:29.455Z,8.86
2023-04-15T04:32:56.830Z,8.94
2023-04-15T04:35:24.151Z,8.78
2023-04-15T04:37:52.492Z,8.75
2023-04-15T04:40:19.801Z,8.61
2023-04-15T04:42:47.625Z,8.76
2023-04-15T04:45:15.170Z,8.53
2023-04-15T04:47:42.752Z,8.58
2023-04-15T04:50:10.630Z,8.90
2023-04-15T04:52:38.332Z,8.87
2023-04-15T04:55:06.541Z,9.04
2023-04-15T04:57:35.914Z,8.92
2023-04-15T05:00:05.018Z,9.03
2023-04-15T05:02:32.851Z,8.89
2023-04-15T05:05:00.355Z,8.78
2023-04-15T05:07:27.601Z,8.71
2023-04-15T05:09:54.971Z,8.95
2023-04-15T05:12:22.404Z,8.75
2023-04-15T05:14:49.725Z,8.80
2023-04-15T05:17:17.368Z,8.83
2023-04-15T05:19:44.673Z,8.76
2023-04-15T05:22:11.984Z,8.98
2023-04-15T05:24:39.283Z,8.94
2023-04-15T05:27:08.506Z,8.85
2023-04-15T05:29:36.101Z,8.82
2023-04-15T05:32:03.320Z,8.65
2023-04-15T05:34:30.653Z,8.61
2023-04-15T05:36:57.921Z,8.51
2023-04-15T05:39:25.249Z,8.51
2023-04-15T05:41:52.636Z,8.62
2023-04-15T05:44:20.025Z,8.64
2023-04-15T05:46:47.362Z,8.64
2023-04-15T05:49:14.616Z,8.61
2023-04-15T05:51:42.241Z,8.75
2023-04-15T05:54:09.687Z,8.56
2023-04-15T05:56:37.030Z,8.67
2023-04-15T05:59:04.292Z,8.65
2023-04-15T06:01:31.606Z,8.47
2023-04-15T06:03:59.136Z,8.58
2023-04-15T06:06:27.276Z,8.62
2023-04-15T06:08:55.929Z,8.63
2023-04-15T06:11:23.299Z,8.47
2023-04-15T06:13:50.648Z,8.46
2023-04-15T06:16:18.007Z,8.48
2023-04-15T06:18:45.867Z,8.49
2023-04-15T06:21:13.205Z,8.29
2023-04-15T06:23:41.416Z,8.36
2023-04-15T06:26:08.667Z,8.44
2023-04-15T06:28:36.128Z,8.38
2023-04-15T06:31:03.589Z,8.42
2023-04-15T06:33:31.831Z,8.51
2023-04-15T06:35:59.164Z,8.51
2023-04-15T06:38:26.484Z,8.41
2023-04-15T06:40:53.847Z,8.51
2023-04-15T06:43:21.045Z,8.48
2023-04-15T06:45:48.356Z,8.46
2023-04-15T06:48:15.766Z,8.50
2023-04-15T06:50:43.101Z,8.45
2023-04-15T06:53:10.329Z,8.59
2023-04-15T06:55:37.689Z,8.48
2023-04-15T06:58:05.047Z,8.58
2023-04-15T07:00:33.748Z,8.42
2023-04-15T07:03:03.749Z,8.53
2023-04-15T07:05:32.402Z,8.63
2023-04-15T07:08:00.414Z,8.48
2023-04-15T07:10:27.780Z,8.51
2023-04-15T07:12:55.101Z,8.68
2023-04-15T07:15:22.549Z,8.59
2023-04-15T07:17:50.126Z,8.60
2023-04-15T07:20:17.567Z,8.51
2023-04-15T07:22:44.999Z,8.58
2023-04-15T07:25:12.450Z,8.83
2023-04-15T07:27:39.721Z,8.62
2023-04-15T07:30:07.559Z,8.65
2023-04-15T07:32:35.254Z,8.81
2023-04-15T07:35:03.780Z,8.51
2023-04-15T07:37:31.017Z,8.64
2023-04-15T07:39:58.267Z,8.50
2023-04-15T07:42:25.640Z,8.40
2023-04-15T07:44:52.987Z,8.58
2023-04-15T07:47:20.332Z,8.47
2023-04-15T07:49:47.853Z,8.41
2023-04-15T07:52:15.166Z,8.45
2023-04-15T07:54:42.445Z,8.46
2023-04-15T07:57:09.809Z,8.43
2023-04-15T07:59:37.124Z,8.49
2023-04-15T08:02:04.634Z,8.64
2023-04-15T08:04:33.627Z,8.65
2023-04-15T08:07:01.147Z,8.76
2023-04-15T08:09:28.630Z,8.69
2023-04-15T08:11:57.087Z,8.95
2023-04-15T08:14:24.787Z,9.19
2023-04-15T08:16:52.512Z,8.89
2023-04-15T08:19:19.942Z,8.98
2023-04-15T08:21:47.198Z,8.96
2023-04-15T08:24:14.480Z,9.12
2023-04-15T08:26:42.169Z,9.05
2023-04-15T08:29:09.466Z,9.15
2023-04-15T08:31:36.731Z,9.16
2023-04-15T08:34:04.082Z,9.20
2023-04-15T08:36:32.453Z,9.28
2023-04-15T08:39:01.592Z,9.26
2023-04-15T08:41:35.865Z,9.30
2023-04-15T08:44:05.163Z,9.34
2023-04-15T08:46:34.866Z,9.54
2023-04-15T08:49:04.609Z,9.37
2023-04-15T08:51:32.807Z,9.27
2023-04-15T08:54:01.551Z,9.54
2023-04-15T08:56:33.134Z,9.56
2023-04-15T08:59:01.090Z,9.40
2023-04-15T09:01:28.998Z,10.14
2023-04-15T09:03:57.265Z,10.31
2023-04-15T09:06:25.711Z,10.31
2023-04-15T09:08:53.081Z,10.06
2023-04-15T09:11:22.343Z,9.77
2023-04-15T09:13:49.770Z,9.72
2023-04-15T09:16:17.254Z,9.80
2023-04-15T09:18:44.724Z,9.73
2023-04-15T09:21:14.140Z,9.54
2023-04-15T09:23:54.943Z,9.53
2023-04-15T09:26:37.043Z,9.49
2023-04-15T09:29:13.530Z,9.60
2023-04-15T09:31:41.684Z,9.46
2023-04-15T09:34:09.172Z,9.23
2023-04-15T09:37:00.072Z,9.25
2023-04-15T09:39:27.642Z,9.33
2023-04-15T09:42:07.769Z,9.47
2023-04-15T09:44:35.587Z,9.44
2023-04-15T09:47:05.596Z,9.30
2023-04-15T09:49:35.423Z,9.45
2023-04-15T09:52:05.992Z,9.39
2023-04-15T09:54:36.321Z,9.23
2023-04-15T09:57:10.314Z,9.41
2023-04-15T09:59:37.866Z,9.57
2023-04-15T10:02:08.823Z,9.67
2023-04-15T10:04:40.864Z,9.87
2023-04-15T10:07:12.377Z,10.30
2023-04-15T10:09:39.894Z,10.40
2023-04-15T10:12:07.391Z,10.46
2023-04-15T10:14:35.784Z,10.58
2023-04-15T10:17:05.074Z,10.59
2023-04-15T10:19:34.545Z,10.58
2023-04-15T10:22:02.253Z,10.51
2023-04-15T10:24:32.376Z,10.54
2023-04-15T10:27:00.623Z,10.58
2023-04-15T10:29:28.470Z,10.45
2023-04-15T10:31:56.499Z,10.54
2023-04-15T10:34:24.876Z,10.81
2023-04-15T10:36:56.588Z,10.76
2023-04-15T10:39:33.310Z,10.80
2023-04-15T10:42:15.494Z,10.94
2023-04-15T10:44:54.002Z,10.98
2023-04-15T10:47:22.401Z,10.72
2023-04-15T10:50:00.843Z,11.01
2023-04-15T10:52:29.540Z,11.10
2023-04-15T10:55:06.220Z,10.68
2023-04-15T10:57:39.425Z,10.89
2023-04-15T11:00:17.146Z,10.96
2023-04-15T11:03:07.379Z,10.82
2023-04-15T11:05:52.446Z,11.04
2023-04-15T11:08:20.988Z,11.16
2023-04-15T11:10:48.459Z,11.10
2023-04-15T11:13:18.474Z,11.19
2023-04-15T11:15:47.347Z,10.82
2023-04-15T11:18:16.483Z,10.67
2023-04-15T11:20:45.367Z,10.80
2023-04-15T11:23:14.745Z,10.84
2023-04-15T11:25:44.515Z,10.83
2023-04-15T11:28:13.162Z,10.94
2023-04-15T11:30:41.383Z,11.10
2023-04-15T11:33:10.459Z,11.11
2023-04-15T11:35:38.160Z,11.21
2023-04-15T11:38:06.284Z,10.77
2023-04-15T11:40:33.794Z,10.56
2023-04-15T11:43:21.634Z,10.95
2023-04-15T11:46:09.220Z,10.94
2023-04-15T11:48:36.856Z,10.65
2023-04-15T11:51:06.046Z,11.01
2023-04-15T11:53:50.520Z,11.08
2023-04-15T11:56:26.266Z,10.88
2023-04-15T11:58:57.126Z,10.69
2023-04-15T12:01:36.362Z,10.85
2023-04-15T12:04:14.904Z,11.23
2023-04-15T12:06:42.458Z,10.94
2023-04-15T12:09:12.378Z,11.02
2023-04-15T12:11:41.070Z,10.93
2023-04-15T12:14:32.758Z,11.03
2023-04-15T12:17:03.037Z,11.04
2023-04-15T12:19:32.551Z,11.34
2023-04-15T12:22:09.147Z,11.47
2023-04-15T12:24:37.829Z,11.46
2023-04-15T12:27:09.506Z,11.18
2023-04-15T12:29:38.780Z,10.91
2023-04-15T12:32:06.122Z,10.88
2023-04-15T12:34:53.497Z,11.09
2023-04-15T12:37:21.048Z,11.29
2023-04-15T12:39:49.872Z,11.17
2023-04-15T12:42:37.942Z,11.27
2023-04-15T12:45:05.825Z,11.44
2023-04-15T12:47:33.672Z,11.20
2023-04-15T12:50:01.657Z,11.30
2023-04-15T12:52:28.904Z,11.56
2023-04-15T12:54:56.311Z,11.69
2023-04-15T12:57:23.581Z,11.53
2023-04-15T12:59:51.217Z,11.39
2023-04-15T13:02:18.840Z,11.42
2023-04-15T13:04:46.709Z,11.50
2023-04-15T13:07:15.793Z,11.33
2023-04-15T13:09:44.106Z,11.22
2023-04-15T13:12:13.820Z,11.20
2023-04-15T13:14:41.482Z,11.23
2023-04-15T13:17:10.298Z,11.37
2023-04-15T13:19:38.890Z,11.29
2023-04-15T13:22:07.019Z,11.37
2023-04-15T13:24:34.318Z,11.31
2023-04-15T13:27:01.673Z,11.29
2023-04-15T13:29:29.012Z,11.36
2023-04-15T13:31:56.793Z,11.44
2023-04-15T13:34:24.365Z,11.58
2023-04-15T13:36:51.604Z,11.50
2023-04-15T13:39:19.136Z,11.20
2023-04-15T13:41:46.405Z,11.23
2023-04-15T13:44:16.699Z,11.25
2023-04-15T13:46:44.312Z,11.44
2023-04-15T13:49:11.724Z,11.55
2023-04-15T13:51:40.529Z,11.55
2023-04-15T13:54:08.173Z,11.43
2023-04-15T13:56:35.969Z,11.18
2023-04-15T13:59:03.452Z,11.32
2023-04-15T14:01:31.554Z,11.47
2023-04-15T14:03:59.160Z,11.44
2023-04-15T14:06:27.993Z,11.35
2023-04-15T14:08:55.630Z,11.46
2023-04-15T14:11:23.624Z,11.42
2023-04-15T14:13:51.005Z,11.55
2023-04-15T14:16:18.430Z,11.75
2023-04-15T14:18:45.981Z,11.90
2023-04-15T14:21:13.360Z,11.65
2023-04-15T14:23:41.114Z,11.59
2023-04-15T14:26:15.477Z,11.79
2023-04-15T14:28:46.023Z,12.03
2023-04-15T14:31:14.280Z,12.15
2023-04-15T14:33:41.804Z,11.93
2023-04-15T14:36:10.404Z,11.88
2023-04-15T14:38:41.172Z,11.83
2023-04-15T14:41:10.154Z,11.97
2023-04-15T14:43:38.955Z,11.93
2023-04-15T14:46:06.812Z,12.04
2023-04-15T14:48:34.245Z,11.77
2023-04-15T14:51:01.624Z,11.80
2023-04-15T14:53:28.975Z,11.96
2023-04-15T14:55:56.414Z,12.27
2023-04-15T14:58:23.748Z,12.58
2023-04-15T15:00:51.109Z,12.42
2023-04-15T15:03:18.756Z,12.38
2023-04-15T15:05:47.302Z,13.14
2023-04-15T15:08:14.917Z,12.74
2023-04-15T15:10:49.453Z,12.63
2023-04-15T15:13:17.907Z,12.70
2023-04-15T15:15:45.516Z,12.62
2023-04-15T15:18:13.144Z,12.51
2023-04-15T15:20:40.453Z,12.53
2023-04-15T15:23:07.742Z,12.32
2023-04-15T15:25:34.994Z,12.33
2023-04-15T15:28:02.298Z,12.40
2023-04-15T15:30:30.526Z,12.51
2023-04-15T15:32:57.915Z,12.56
2023-04-15T15:35:26.063Z,12.58
2023-04-15T15:37:53.286Z,12.65
2023-04-15T15:40:21.955Z,12.83
2023-04-15T15:42:49.957Z,12.94
2023-04-15T15:45:20.105Z,13.09
2023-04-15T15:47:48.425Z,13.12
2023-04-15T15:50:16.054Z,13.62
2023-04-15T15:52:43.522Z,13.31
2023-04-15T15:55:10.964Z,13.17
2023-04-15T15:57:38.292Z,12.94
2023-04-15T16:00:12.056Z,13.11
2023-04-15T16:05:11.214Z,13.26
2023-04-15T16:07:38.557Z,13.24
2023-04-15T16:10:06.655Z,12.99
2023-04-15T16:12:35.037Z,13.22
2023-04-15T16:15:03.009Z,12.97
2023-04-15T16:17:30.551Z,13.01
2023-04-15T16:20:00.699Z,12.97
2023-04-15T16:22:28.596Z,12.90
2023-04-15T16:24:55.873Z,12.85
2023-04-15T16:27:23.235Z,13.04
2023-04-15T16:29:50.610Z,13.31
2023-04-15T16:32:18.203Z,13.41
2023-04-15T16:34:45.800Z,13.58
2023-04-15T16:37:13.110Z,13.34
2023-04-15T16:39:40.866Z,13.58
2023-04-15T16:42:08.280Z,13.51
2023-04-15T16:44:35.522Z,13.23
2023-04-15T16:47:03.163Z,13.07
2023-04-15T16:49:30.655Z,13.56
2023-04-15T16:51:58.367Z,13.30
2023-04-15T16:54:25.708Z,13.27
2023-04-15T16:56:52.947Z,13.39
2023-04-15T16:59:20.378Z,13.47
2023-04-15T17:01:47.897Z,13.90
2023-04-15T17:04:15.260Z,14.09
2023-04-15T17:06:42.993Z,13.73
2023-04-15T17:09:10.378Z,13.52
2023-04-15T17:11:40.390Z,13.63
2023-04-15T17:14:07.784Z,13.72
2023-04-15T17:16:35.993Z,13.35
2023-04-15T17:19:03.763Z,13.61
2023-04-15T17:21:31.941Z,13.27
2023-04-15T17:23:59.339Z,13.11
2023-04-15T17:26:26.680Z,13.11
2023-04-15T17:28:53.953Z,13.16
2023-04-15T17:31:21.405Z,13.31
2023-04-15T17:34:00.137Z,13.00
2023-04-15T17:36:34.045Z,12.97
2023-04-15T17:39:01.429Z,13.10
2023-04-15T17:41:28.742Z,13.16
2023-04-15T17:43:56.037Z,13.28
2023-04-15T17:46:23.486Z,13.49
2023-04-15T17:48:50.753Z,13.16
2023-04-15T17:51:18.125Z,12.92
2023-04-15T17:53:45.489Z,12.81
2023-04-15T17:56:12.937Z,13.08
2023-04-15T17:58:40.332Z,13.36
2023-04-15T18:01:07.785Z,13.11
2023-04-15T18:03:35.110Z,12.97
2023-04-15T18:06:02.551Z,13.00
2023-04-15T18:08:29.913Z,12.84
2023-04-15T18:10:57.481Z,12.74
2023-04-15T18:13:25.071Z,12.76
2023-04-15T18:15:52.425Z,12.71
2023-04-15T18:18:19.722Z,12.84
2023-04-15T18:20:47.018Z,12.85
2023-04-15T18:23:14.613Z,12.84
2023-04-15T18:25:43.588Z,12.89
2023-04-15T18:28:12.218Z,13.09
2023-04-15T18:30:39.774Z,12.86
2023-04-15T18:33:07.077Z,12.68
2023-04-15T18:35:35.145Z,12.69
2023-04-15T18:38:02.797Z,12.68
2023-04-15T18:40:30.323Z,12.74
2023-04-15T18:42:58.954Z,12.55
2023-04-15T18:45:26.501Z,12.57
2023-04-15T18:47:54.005Z,12.73
2023-04-15T18:50:21.278Z,12.61
2023-04-15T18:52:48.747Z,12.74
2023-04-15T18:55:17.749Z,12.87
2023-04-15T18:57:46.756Z,12.82
2023-04-15T19:00:17.940Z,12.62
2023-04-15T19:02:45.558Z,12.61
2023-04-15T19:05:13.105Z,12.46
2023-04-15T19:07:41.666Z,12.53
2023-04-15T19:10:09.284Z,12.50
2023-04-15T19:12:37.055Z,12.55
2023-04-15T19:15:04.835Z,12.51
2023-04-15T19:17:32.473Z,12.76
2023-04-15T19:19:59.876Z,12.60
2023-04-15T19:22:28.757Z,12.38
2023-04-15T19:24:56.389Z,12.47
2023-04-15T19:27:23.947Z,12.44
2023-04-15T19:29:51.215Z,12.46
2023-04-15T19:32:18.746Z,12.32
2023-04-15T19:34:46.504Z,12.20
2023-04-15T19:37:14.778Z,12.19
2023-04-15T19:39:42.151Z,12.22
2023-04-15T19:42:09.401Z,12.15
2023-04-15T19:44:37.340Z,12.46
2023-04-15T19:47:04.707Z,12.14
2023-04-15T19:49:32.066Z,12.00
2023-04-15T19:51:59.258Z,12.22
2023-04-15T19:54:26.570Z,11.77
2023-04-15T19:56:53.836Z,11.97
2023-04-15T19:59:21.042Z,11.87
2023-04-15T20:01:48.686Z,11.85
2023-04-15T20:04:16.167Z,11.82
2023-04-15T20:06:43.503Z,11.82
2023-04-15T20:09:11.537Z,11.77
2023-04-15T20:12:47.008Z,11.96
2023-04-15T20:14:26.586Z,11.73
2023-04-15T20:16:53.969Z,11.65
2023-04-15T20:19:21.280Z,11.75
2023-04-15T20:21:49.771Z,11.67
2023-04-15T20:24:19.887Z,11.45
2023-04-15T20:26:47.330Z,11.44
2023-04-15T20:29:14.789Z,11.47
2023-04-15T20:31:42.151Z,11.42
2023-04-15T20:34:11.387Z,11.32
2023-04-15T20:36:39.554Z,11.40
2023-04-15T20:39:07.149Z,11.42
2023-04-15T20:41:34.893Z,11.22
2023-04-15T20:44:02.183Z,11.11
2023-04-15T20:46:29.527Z,10.97
2023-04-15T20:48:56.982Z,10.91
2023-04-15T20:51:24.318Z,10.79
2023-04-15T20:53:51.898Z,10.91
2023-04-15T20:56:20.463Z,10.89
2023-04-15T20:58:47.778Z,10.80
2023-04-15T21:01:15.211Z,10.74
2023-04-15T21:03:42.865Z,10.79
2023-04-15T21:06:10.535Z,10.70
2023-04-15T21:08:37.883Z,10.62
2023-04-15T21:11:05.207Z,10.69
2023-04-15T21:13:33.699Z,10.62
2023-04-15T21:16:00.969Z,10.66
2023-04-15T21:18:28.379Z,10.62
2023-04-15T21:21:01.640Z,10.49
2023-04-15T21:23:29.891Z,10.34
2023-04-15T21:25:58.844Z,10.28
2023-04-15T21:28:28.034Z,10.46
2023-04-15T21:30:59.234Z,10.67
2023-04-15T21:33:27.124Z,10.48
2023-04-15T21:35:54.719Z,10.46
2023-04-15T21:38:23.368Z,10.36
2023-04-15T21:40:50.923Z,10.50
2023-04-15T21:43:18.238Z,10.43
2023-04-15T21:46:20.677Z,10.34
2023-04-15T21:48:33.007Z,10.42
2023-04-15T21:51:01.741Z,10.22
2023-04-15T21:53:29.158Z,10.09
2023-04-15T21:55:56.506Z,10.05
2023-04-15T21:58:23.852Z,10.03
2023-04-15T22:00:57.379Z,10.04
2023-04-15T22:03:25.018Z,10.21
2023-04-15T22:05:52.588Z,9.95
2023-04-15T22:08:21.166Z,10.01
2023-04-15T22:10:48.439Z,9.93
2023-04-15T22:13:16.504Z,10.05
2023-04-15T22:15:43.792Z,9.88
2023-04-15T22:18:12.567Z,9.71
2023-04-15T22:20:40.115Z,9.71
2023-04-15T22:23:10.319Z,9.70
2023-04-15T22:25:37.557Z,9.79
2023-04-15T22:28:09.548Z,9.88
2023-04-15T22:30:41.086Z,9.76
2023-04-15T22:33:09.424Z,9.93
2023-04-15T22:35:37.447Z,9.92
2023-04-15T22:38:06.398Z,9.77
2023-04-15T22:40:33.950Z,9.49
2023-04-15T22:43:01.699Z,9.52
2023-04-15T22:45:29.096Z,9.68
2023-04-15T22:47:56.397Z,9.65
2023-04-15T22:50:23.769Z,9.45
2023-04-15T22:52:51.222Z,9.41
2023-04-15T22:55:18.582Z,9.52
2023-04-15T22:57:45.961Z,9.62
2023-04-15T23:00:13.409Z,9.73
2023-04-15T23:02:40.824Z,9.56
2023-04-15T23:05:12.432Z,9.71
2023-04-15T23:07:40.658Z,9.50
2023-04-15T23:10:08.506Z,9.51
2023-04-15T23:12:35.989Z,9.41
2023-04-15T23:15:03.840Z,9.43
2023-04-15T23:17:31.333Z,9.56
2023-04-15T23:19:58.576Z,9.42
2023-04-15T23:22:26.122Z,9.66
2023-04-15T23:24:53.327Z,9.85
2023-04-15T23:27:20.939Z,9.57
2023-04-15T23:29:48.242Z,9.72
2023-04-15T23:32:15.575Z,9.71
2023-04-15T23:34:42.906Z,9.43
2023-04-15T23:37:10.491Z,9.34
2023-04-15T23:39:37.783Z,9.72
2023-04-15T23:42:05.140Z,9.49
2023-04-15T23:44:32.354Z,9.23
2023-04-15T23:46:59.655Z,9.30
2023-04-15T23:49:26.859Z,9.39
2023-04-15T23:51:54.006Z,9.27
2023-04-15T23:54:21.330Z,9.43
2023-04-15T23:56:48.569Z,9.53
2023-04-15T23:59:15.810Z,9.57
